sensor_id;sensor_type;location;lat;lon;timestamp;P1;durP1;ratioP1;P2;durP2;ratioP2
43311;SDS011;30041;48.300;16.352;2023-06-04T00:00:33;2.58;;;1.10;;
43311;SDS011;30041;48.300;16.352;2023-06-04T00:02:59;1.50;;;1.00;;
43311;SDS011;30041;48.300;16.352;2023-06-04T00:05:25;0.98;;;0.80;;
43311;SDS011;30041;48.300;16.352;2023-06-04T00:07:51;1.60;;;0.90;;
43311;SDS011;30041;48.300;16.352;2023-06-04T00:10:17;1.20;;;0.88;;
43311;SDS011;30041;48.300;16.352;2023-06-04T00:12:43;1.27;;;0.88;;
43311;SDS011;30041;48.300;16.352;2023-06-04T00:15:10;0.93;;;0.70;;
43311;SDS011;30041;48.300;16.352;2023-06-04T00:17:41;1.75;;;1.13;;
43311;SDS011;30041;48.300;16.352;2023-06-04T00:20:07;1.45;;;0.98;;
43311;SDS011;30041;48.300;16.352;2023-06-04T00:22:33;1.95;;;1.00;;
43311;SDS011;30041;48.300;16.352;2023-06-04T00:25:00;1.30;;;0.95;;
43311;SDS011;30041;48.300;16.352;2023-06-04T00:27:26;1.50;;;0.90;;
43311;SDS011;30041;48.300;16.352;2023-06-04T00:29:52;1.63;;;0.90;;
43311;SDS011;30041;48.300;16.352;2023-06-04T00:32:18;1.10;;;0.77;;
43311;SDS011;30041;48.300;16.352;2023-06-04T00:34:49;1.50;;;0.85;;
43311;SDS011;30041;48.300;16.352;2023-06-04T00:37:16;1.27;;;0.88;;
43311;SDS011;30041;48.300;16.352;2023-06-04T00:39:42;1.40;;;0.80;;
43311;SDS011;30041;48.300;16.352;2023-06-04T00:42:11;1.30;;;0.80;;
43311;SDS011;30041;48.300;16.352;2023-06-04T00:44:37;1.35;;;0.90;;
43311;SDS011;30041;48.300;16.352;2023-06-04T00:47:05;1.50;;;0.98;;
43311;SDS011;30041;48.300;16.352;2023-06-04T00:49:31;0.90;;;0.70;;
43311;SDS011;30041;48.300;16.352;2023-06-04T00:51:57;1.30;;;0.80;;
43311;SDS011;30041;48.300;16.352;2023-06-04T00:54:23;1.08;;;0.70;;
43311;SDS011;30041;48.300;16.352;2023-06-04T00:56:50;1.27;;;0.68;;
43311;SDS011;30041;48.300;16.352;2023-06-04T00:59:16;1.70;;;0.90;;
43311;SDS011;30041;48.300;16.352;2023-06-04T01:04:32;1.08;;;0.80;;
43311;SDS011;30041;48.300;16.352;2023-06-04T01:07:11;1.02;;;0.70;;
43311;SDS011;30041;48.300;16.352;2023-06-04T01:09:39;0.90;;;0.68;;
43311;SDS011;30041;48.300;16.352;2023-06-04T01:12:06;1.17;;;0.80;;
43311;SDS011;30041;48.300;16.352;2023-06-04T01:14:32;1.25;;;0.80;;
43311;SDS011;30041;48.300;16.352;2023-06-04T01:17:06;1.05;;;0.65;;
43311;SDS011;30041;48.300;16.352;2023-06-04T01:28:05;0.95;;;0.60;;
43311;SDS011;30041;48.300;16.352;2023-06-04T01:30:34;1.05;;;0.80;;
43311;SDS011;30041;48.300;16.352;2023-06-04T01:33:01;0.98;;;0.70;;
43311;SDS011;30041;48.300;16.352;2023-06-04T01:35:35;1.20;;;0.90;;
43311;SDS011;30041;48.300;16.352;2023-06-04T01:38:01;1.05;;;0.50;;
43311;SDS011;30041;48.300;16.352;2023-06-04T01:40:28;0.75;;;0.70;;
43311;SDS011;30041;48.300;16.352;2023-06-04T01:42:54;1.10;;;0.70;;
43311;SDS011;30041;48.300;16.352;2023-06-04T01:45:24;0.77;;;0.60;;
43311;SDS011;30041;48.300;16.352;2023-06-04T01:47:52;0.50;;;0.50;;
43311;SDS011;30041;48.300;16.352;2023-06-04T01:50:18;0.98;;;0.70;;
43311;SDS011;30041;48.300;16.352;2023-06-04T01:52:44;0.82;;;0.60;;
43311;SDS011;30041;48.300;16.352;2023-06-04T01:55:11;1.00;;;0.70;;
43311;SDS011;30041;48.300;16.352;2023-06-04T01:57:39;1.23;;;0.63;;
43311;SDS011;30041;48.300;16.352;2023-06-04T02:00:12;1.00;;;0.60;;
43311;SDS011;30041;48.300;16.352;2023-06-04T02:02:42;0.90;;;0.70;;
43311;SDS011;30041;48.300;16.352;2023-06-04T02:05:09;0.60;;;0.60;;
43311;SDS011;30041;48.300;16.352;2023-06-04T02:07:39;0.82;;;0.73;;
43311;SDS011;30041;48.300;16.352;2023-06-04T02:10:09;0.82;;;0.60;;
43311;SDS011;30041;48.300;16.352;2023-06-04T02:12:36;0.75;;;0.50;;
43311;SDS011;30041;48.300;16.352;2023-06-04T02:15:04;0.52;;;0.50;;
43311;SDS011;30041;48.300;16.352;2023-06-04T02:17:34;0.82;;;0.52;;
43311;SDS011;30041;48.300;16.352;2023-06-04T02:20:06;0.50;;;0.50;;
43311;SDS011;30041;48.300;16.352;2023-06-04T02:22:32;0.82;;;0.60;;
43311;SDS011;30041;48.300;16.352;2023-06-04T02:24:58;0.60;;;0.60;;
43311;SDS011;30041;48.300;16.352;2023-06-04T02:27:24;0.70;;;0.60;;
43311;SDS011;30041;48.300;16.352;2023-06-04T02:29:53;0.88;;;0.60;;
43311;SDS011;30041;48.300;16.352;2023-06-04T02:32:19;1.02;;;0.60;;
43311;SDS011;30041;48.300;16.352;2023-06-04T02:34:44;0.40;;;0.40;;
43311;SDS011;30041;48.300;16.352;2023-06-04T02:37:13;0.80;;;0.60;;
43311;SDS011;30041;48.300;16.352;2023-06-04T02:39:39;0.93;;;0.70;;
43311;SDS011;30041;48.300;16.352;2023-06-04T02:42:08;0.80;;;0.68;;
43311;SDS011;30041;48.300;16.352;2023-06-04T02:44:34;0.52;;;0.40;;
43311;SDS011;30041;48.300;16.352;2023-06-04T02:47:03;0.57;;;0.43;;
43311;SDS011;30041;48.300;16.352;2023-06-04T02:49:31;0.50;;;0.40;;
43311;SDS011;30041;48.300;16.352;2023-06-04T02:51:57;0.52;;;0.40;;
43311;SDS011;30041;48.300;16.352;2023-06-04T02:54:23;0.80;;;0.60;;
43311;SDS011;30041;48.300;16.352;2023-06-04T02:57:09;0.60;;;0.50;;
43311;SDS011;30041;48.300;16.352;2023-06-04T02:59:36;0.80;;;0.60;;
43311;SDS011;30041;48.300;16.352;2023-06-04T03:02:02;0.70;;;0.60;;
43311;SDS011;30041;48.300;16.352;2023-06-04T03:04:29;0.60;;;0.45;;
43311;SDS011;30041;48.300;16.352;2023-06-04T03:06:55;1.05;;;0.40;;
43311;SDS011;30041;48.300;16.352;2023-06-04T03:09:21;0.40;;;0.40;;
43311;SDS011;30041;48.300;16.352;2023-06-04T03:11:48;0.60;;;0.40;;
43311;SDS011;30041;48.300;16.352;2023-06-04T03:14:14;0.80;;;0.52;;
43311;SDS011;30041;48.300;16.352;2023-06-04T03:16:40;0.52;;;0.40;;
43311;SDS011;30041;48.300;16.352;2023-06-04T03:19:07;1.30;;;0.50;;
43311;SDS011;30041;48.300;16.352;2023-06-04T03:21:33;1.05;;;0.65;;
43311;SDS011;30041;48.300;16.352;2023-06-04T03:23:59;0.70;;;0.50;;
43311;SDS011;30041;48.300;16.352;2023-06-04T03:26:28;0.57;;;0.43;;
43311;SDS011;30041;48.300;16.352;2023-06-04T03:28:54;0.55;;;0.50;;
43311;SDS011;30041;48.300;16.352;2023-06-04T03:31:20;0.57;;;0.43;;
43311;SDS011;30041;48.300;16.352;2023-06-04T03:33:47;0.68;;;0.52;;
43311;SDS011;30041;48.300;16.352;2023-06-04T03:36:13;0.57;;;0.40;;
43311;SDS011;30041;48.300;16.352;2023-06-04T03:38:39;0.55;;;0.43;;
43311;SDS011;30041;48.300;16.352;2023-06-04T03:41:05;0.50;;;0.50;;
43311;SDS011;30041;48.300;16.352;2023-06-04T03:43:39;0.45;;;0.40;;
43311;SDS011;30041;48.300;16.352;2023-06-04T03:46:05;0.75;;;0.60;;
43311;SDS011;30041;48.300;16.352;2023-06-04T03:48:31;0.40;;;0.38;;
43311;SDS011;30041;48.300;16.352;2023-06-04T03:50:57;0.43;;;0.40;;
43311;SDS011;30041;48.300;16.352;2023-06-04T03:53:24;0.43;;;0.30;;
43311;SDS011;30041;48.300;16.352;2023-06-04T03:55:50;0.43;;;0.35;;
43311;SDS011;30041;48.300;16.352;2023-06-04T03:58:16;0.60;;;0.40;;
43311;SDS011;30041;48.300;16.352;2023-06-04T04:00:45;0.40;;;0.30;;
43311;SDS011;30041;48.300;16.352;2023-06-04T04:03:11;0.50;;;0.50;;
43311;SDS011;30041;48.300;16.352;2023-06-04T04:05:37;0.50;;;0.40;;
43311;SDS011;30041;48.300;16.352;2023-06-04T04:08:03;0.43;;;0.40;;
43311;SDS011;30041;48.300;16.352;2023-06-04T04:10:29;0.30;;;0.30;;
43311;SDS011;30041;48.300;16.352;2023-06-04T04:12:56;0.43;;;0.40;;
43311;SDS011;30041;48.300;16.352;2023-06-04T04:15:25;0.52;;;0.50;;
43311;SDS011;30041;48.300;16.352;2023-06-04T04:17:54;0.35;;;0.30;;
43311;SDS011;30041;48.300;16.352;2023-06-04T04:20:20;0.20;;;0.20;;
43311;SDS011;30041;48.300;16.352;2023-06-04T04:22:46;0.40;;;0.40;;
43311;SDS011;30041;48.300;16.352;2023-06-04T04:25:12;0.35;;;0.30;;
43311;SDS011;30041;48.300;16.352;2023-06-04T04:27:42;0.40;;;0.40;;
43311;SDS011;30041;48.300;16.352;2023-06-04T04:30:08;0.40;;;0.30;;
43311;SDS011;30041;48.300;16.352;2023-06-04T04:32:34;0.30;;;0.30;;
43311;SDS011;30041;48.300;16.352;2023-06-04T04:35:01;0.60;;;0.50;;
43311;SDS011;30041;48.300;16.352;2023-06-04T04:37:30;0.40;;;0.40;;
43311;SDS011;30041;48.300;16.352;2023-06-04T04:39:55;0.30;;;0.30;;
43311;SDS011;30041;48.300;16.352;2023-06-04T04:42:21;0.32;;;0.30;;
43311;SDS011;30041;48.300;16.352;2023-06-04T04:44:47;0.40;;;0.30;;
43311;SDS011;30041;48.300;16.352;2023-06-04T04:47:17;0.55;;;0.40;;
43311;SDS011;30041;48.300;16.352;2023-06-04T04:49:43;0.70;;;0.32;;
43311;SDS011;30041;48.300;16.352;2023-06-04T04:52:09;0.40;;;0.30;;
43311;SDS011;30041;48.300;16.352;2023-06-04T04:54:35;5.85;;;1.42;;
43311;SDS011;30041;48.300;16.352;2023-06-04T04:57:01;6.88;;;1.60;;
43311;SDS011;30041;48.300;16.352;2023-06-04T04:59:27;10.20;;;1.70;;
43311;SDS011;30041;48.300;16.352;2023-06-04T05:01:53;3.53;;;0.98;;
43311;SDS011;30041;48.300;16.352;2023-06-04T05:04:19;8.70;;;1.65;;
43311;SDS011;30041;48.300;16.352;2023-06-04T05:06:45;9.25;;;1.50;;
43311;SDS011;30041;48.300;16.352;2023-06-04T05:09:11;6.28;;;1.60;;
43311;SDS011;30041;48.300;16.352;2023-06-04T05:11:37;4.53;;;1.50;;
43311;SDS011;30041;48.300;16.352;2023-06-04T05:14:03;3.15;;;1.40;;
43311;SDS011;30041;48.300;16.352;2023-06-04T05:16:28;6.50;;;1.60;;
43311;SDS011;30041;48.300;16.352;2023-06-04T05:18:54;7.53;;;1.70;;
43311;SDS011;30041;48.300;16.352;2023-06-04T05:21:20;9.52;;;1.90;;
43311;SDS011;30041;48.300;16.352;2023-06-04T05:23:46;9.13;;;1.83;;
43311;SDS011;30041;48.300;16.352;2023-06-04T05:26:12;5.22;;;1.88;;
43311;SDS011;30041;48.300;16.352;2023-06-04T05:28:38;8.07;;;1.85;;
43311;SDS011;30041;48.300;16.352;2023-06-04T05:31:05;6.45;;;2.03;;
43311;SDS011;30041;48.300;16.352;2023-06-04T05:33:31;8.32;;;2.08;;
43311;SDS011;30041;48.300;16.352;2023-06-04T05:35:57;7.25;;;1.98;;
43311;SDS011;30041;48.300;16.352;2023-06-04T05:38:23;7.93;;;1.70;;
43311;SDS011;30041;48.300;16.352;2023-06-04T05:40:55;9.18;;;1.85;;
43311;SDS011;30041;48.300;16.352;2023-06-04T05:43:21;6.43;;;1.73;;
43311;SDS011;30041;48.300;16.352;2023-06-04T05:45:48;9.23;;;2.15;;
43311;SDS011;30041;48.300;16.352;2023-06-04T05:48:13;12.60;;;2.72;;
43311;SDS011;30041;48.300;16.352;2023-06-04T05:50:39;16.50;;;2.80;;
43311;SDS011;30041;48.300;16.352;2023-06-04T05:53:05;11.60;;;2.78;;
43311;SDS011;30041;48.300;16.352;2023-06-04T05:55:31;9.80;;;2.95;;
43311;SDS011;30041;48.300;16.352;2023-06-04T05:58:00;8.40;;;2.47;;
43311;SDS011;30041;48.300;16.352;2023-06-04T06:00:25;9.38;;;2.35;;
43311;SDS011;30041;48.300;16.352;2023-06-04T06:02:52;6.95;;;2.58;;
43311;SDS011;30041;48.300;16.352;2023-06-04T06:05:18;8.10;;;2.38;;
43311;SDS011;30041;48.300;16.352;2023-06-04T06:07:45;5.68;;;2.03;;
43311;SDS011;30041;48.300;16.352;2023-06-04T06:10:11;8.23;;;2.20;;
43311;SDS011;30041;48.300;16.352;2023-06-04T06:12:38;6.18;;;1.85;;
43311;SDS011;30041;48.300;16.352;2023-06-04T06:15:04;6.90;;;2.20;;
43311;SDS011;30041;48.300;16.352;2023-06-04T06:17:31;3.60;;;1.75;;
43311;SDS011;30041;48.300;16.352;2023-06-04T06:19:58;6.85;;;1.98;;
43311;SDS011;30041;48.300;16.352;2023-06-04T06:22:24;7.93;;;2.10;;
43311;SDS011;30041;48.300;16.352;2023-06-04T06:24:50;8.63;;;2.10;;
43311;SDS011;30041;48.300;16.352;2023-06-04T06:27:21;6.35;;;1.92;;
43311;SDS011;30041;48.300;16.352;2023-06-04T06:29:47;4.07;;;1.88;;
43311;SDS011;30041;48.300;16.352;2023-06-04T06:32:16;5.40;;;1.85;;
43311;SDS011;30041;48.300;16.352;2023-06-04T06:34:42;6.38;;;2.00;;
43311;SDS011;30041;48.300;16.352;2023-06-04T06:37:08;4.70;;;1.80;;
43311;SDS011;30041;48.300;16.352;2023-06-04T06:39:34;5.15;;;2.20;;
43311;SDS011;30041;48.300;16.352;2023-06-04T06:42:00;4.65;;;1.60;;
43311;SDS011;30041;48.300;16.352;2023-06-04T06:44:26;3.75;;;1.90;;
43311;SDS011;30041;48.300;16.352;2023-06-04T06:46:52;3.38;;;1.60;;
43311;SDS011;30041;48.300;16.352;2023-06-04T06:49:18;5.05;;;1.80;;
43311;SDS011;30041;48.300;16.352;2023-06-04T06:51:44;4.28;;;1.70;;
43311;SDS011;30041;48.300;16.352;2023-06-04T06:54:10;5.22;;;1.80;;
43311;SDS011;30041;48.300;16.352;2023-06-04T06:56:39;4.65;;;1.60;;
43311;SDS011;30041;48.300;16.352;2023-06-04T06:59:05;3.35;;;2.00;;
43311;SDS011;30041;48.300;16.352;2023-06-04T07:01:31;3.08;;;1.60;;
43311;SDS011;30041;48.300;16.352;2023-06-04T07:03:57;4.00;;;1.90;;
43311;SDS011;30041;48.300;16.352;2023-06-04T07:06:23;4.50;;;1.55;;
43311;SDS011;30041;48.300;16.352;2023-06-04T07:08:50;4.35;;;1.60;;
43311;SDS011;30041;48.300;16.352;2023-06-04T07:11:16;3.47;;;1.50;;
43311;SDS011;30041;48.300;16.352;2023-06-04T07:13:42;3.83;;;1.75;;
43311;SDS011;30041;48.300;16.352;2023-06-04T07:16:08;3.58;;;1.60;;
43311;SDS011;30041;48.300;16.352;2023-06-04T07:18:34;3.13;;;1.60;;
43311;SDS011;30041;48.300;16.352;2023-06-04T07:21:00;5.88;;;1.52;;
43311;SDS011;30041;48.300;16.352;2023-06-04T07:23:26;4.22;;;1.77;;
43311;SDS011;30041;48.300;16.352;2023-06-04T07:25:58;2.95;;;1.70;;
43311;SDS011;30041;48.300;16.352;2023-06-04T07:28:27;4.35;;;1.58;;
43311;SDS011;30041;48.300;16.352;2023-06-04T07:30:53;3.20;;;1.30;;
43311;SDS011;30041;48.300;16.352;2023-06-04T07:33:18;3.45;;;1.65;;
43311;SDS011;30041;48.300;16.352;2023-06-04T07:35:44;2.95;;;1.63;;
43311;SDS011;30041;48.300;16.352;2023-06-04T07:38:10;4.15;;;1.60;;
43311;SDS011;30041;48.300;16.352;2023-06-04T07:40:36;5.28;;;1.65;;
43311;SDS011;30041;48.300;16.352;2023-06-04T07:43:02;1.20;;;0.95;;
43311;SDS011;30041;48.300;16.352;2023-06-04T07:45:28;3.80;;;1.50;;
43311;SDS011;30041;48.300;16.352;2023-06-04T07:47:54;2.67;;;1.45;;
43311;SDS011;30041;48.300;16.352;2023-06-04T07:50:20;4.43;;;1.40;;
43311;SDS011;30041;48.300;16.352;2023-06-04T07:52:46;2.20;;;1.35;;
43311;SDS011;30041;48.300;16.352;2023-06-04T07:55:12;2.45;;;1.30;;
43311;SDS011;30041;48.300;16.352;2023-06-04T07:57:38;2.50;;;1.40;;
43311;SDS011;30041;48.300;16.352;2023-06-04T08:00:03;2.28;;;1.35;;
43311;SDS011;30041;48.300;16.352;2023-06-04T08:02:31;2.53;;;1.17;;
43311;SDS011;30041;48.300;16.352;2023-06-04T08:04:57;2.35;;;1.40;;
43311;SDS011;30041;48.300;16.352;2023-06-04T08:07:23;2.63;;;1.35;;
43311;SDS011;30041;48.300;16.352;2023-06-04T08:09:52;3.33;;;1.50;;
43311;SDS011;30041;48.300;16.352;2023-06-04T08:12:17;2.33;;;1.20;;
43311;SDS011;30041;48.300;16.352;2023-06-04T08:14:46;3.08;;;1.23;;
43311;SDS011;30041;48.300;16.352;2023-06-04T08:17:12;1.65;;;0.98;;
43311;SDS011;30041;48.300;16.352;2023-06-04T08:19:47;2.15;;;1.23;;
43311;SDS011;30041;48.300;16.352;2023-06-04T08:22:13;2.58;;;1.20;;
43311;SDS011;30041;48.300;16.352;2023-06-04T08:24:39;2.00;;;1.30;;
43311;SDS011;30041;48.300;16.352;2023-06-04T08:27:04;2.90;;;1.20;;
43311;SDS011;30041;48.300;16.352;2023-06-04T08:29:30;2.50;;;1.35;;
43311;SDS011;30041;48.300;16.352;2023-06-04T08:31:59;2.42;;;1.20;;
43311;SDS011;30041;48.300;16.352;2023-06-04T08:34:26;1.80;;;1.10;;
43311;SDS011;30041;48.300;16.352;2023-06-04T08:36:52;2.22;;;1.00;;
43311;SDS011;30041;48.300;16.352;2023-06-04T08:39:18;4.00;;;1.30;;
43311;SDS011;30041;48.300;16.352;2023-06-04T08:41:51;5.32;;;1.50;;
43311;SDS011;30041;48.300;16.352;2023-06-04T08:44:26;2.83;;;1.40;;
43311;SDS011;30041;48.300;16.352;2023-06-04T08:46:53;4.15;;;1.15;;
43311;SDS011;30041;48.300;16.352;2023-06-04T08:49:22;3.78;;;1.30;;
43311;SDS011;30041;48.300;16.352;2023-06-04T08:51:54;1.83;;;0.93;;
43311;SDS011;30041;48.300;16.352;2023-06-04T08:54:21;3.35;;;1.23;;
43311;SDS011;30041;48.300;16.352;2023-06-04T08:56:47;4.88;;;1.10;;
43311;SDS011;30041;48.300;16.352;2023-06-04T08:59:14;5.35;;;1.02;;
43311;SDS011;30041;48.300;16.352;2023-06-04T09:01:41;3.75;;;1.20;;
43311;SDS011;30041;48.300;16.352;2023-06-04T09:04:09;3.50;;;1.20;;
43311;SDS011;30041;48.300;16.352;2023-06-04T09:06:37;5.40;;;1.65;;
43311;SDS011;30041;48.300;16.352;2023-06-04T09:09:08;7.68;;;1.65;;
43311;SDS011;30041;48.300;16.352;2023-06-04T09:11:38;7.43;;;1.90;;
43311;SDS011;30041;48.300;16.352;2023-06-04T09:14:12;9.23;;;1.80;;
43311;SDS011;30041;48.300;16.352;2023-06-04T09:16:58;5.55;;;2.08;;
43311;SDS011;30041;48.300;16.352;2023-06-04T09:19:27;7.85;;;2.25;;
43311;SDS011;30041;48.300;16.352;2023-06-04T09:21:57;8.57;;;2.50;;
43311;SDS011;30041;48.300;16.352;2023-06-04T09:24:25;8.88;;;1.73;;
43311;SDS011;30041;48.300;16.352;2023-06-04T09:27:13;5.75;;;1.73;;
43311;SDS011;30041;48.300;16.352;2023-06-04T09:32:22;11.25;;;2.55;;
43311;SDS011;30041;48.300;16.352;2023-06-04T09:35:07;6.50;;;2.20;;
43311;SDS011;30041;48.300;16.352;2023-06-04T09:37:39;4.05;;;1.77;;
43311;SDS011;30041;48.300;16.352;2023-06-04T09:40:06;3.97;;;1.90;;
43311;SDS011;30041;48.300;16.352;2023-06-04T09:42:46;8.55;;;1.85;;
43311;SDS011;30041;48.300;16.352;2023-06-04T09:45:25;3.65;;;1.23;;
43311;SDS011;30041;48.300;16.352;2023-06-04T09:47:53;3.58;;;1.50;;
43311;SDS011;30041;48.300;16.352;2023-06-04T09:50:24;3.10;;;1.50;;
43311;SDS011;30041;48.300;16.352;2023-06-04T09:52:53;3.22;;;1.40;;
43311;SDS011;30041;48.300;16.352;2023-06-04T09:55:26;2.50;;;1.20;;
43311;SDS011;30041;48.300;16.352;2023-06-04T09:57:52;2.75;;;1.30;;
43311;SDS011;30041;48.300;16.352;2023-06-04T10:00:25;2.05;;;0.90;;
43311;SDS011;30041;48.300;16.352;2023-06-04T10:02:56;1.98;;;0.93;;
43311;SDS011;30041;48.300;16.352;2023-06-04T10:05:26;2.10;;;0.90;;
43311;SDS011;30041;48.300;16.352;2023-06-04T10:07:57;2.17;;;0.90;;
43311;SDS011;30041;48.300;16.352;2023-06-04T10:10:28;3.75;;;0.80;;
43311;SDS011;30041;48.300;16.352;2023-06-04T10:13:16;1.52;;;0.85;;
43311;SDS011;30041;48.300;16.352;2023-06-04T10:15:46;1.67;;;0.80;;
43311;SDS011;30041;48.300;16.352;2023-06-04T10:18:13;1.60;;;0.80;;
43311;SDS011;30041;48.300;16.352;2023-06-04T10:20:40;1.40;;;0.70;;
43311;SDS011;30041;48.300;16.352;2023-06-04T10:23:09;1.38;;;0.60;;
43311;SDS011;30041;48.300;16.352;2023-06-04T10:25:36;1.55;;;0.70;;
43311;SDS011;30041;48.300;16.352;2023-06-04T10:28:02;1.35;;;0.80;;
43311;SDS011;30041;48.300;16.352;2023-06-04T10:30:29;1.10;;;0.70;;
43311;SDS011;30041;48.300;16.352;2023-06-04T10:32:59;1.35;;;0.70;;
43311;SDS011;30041;48.300;16.352;2023-06-04T10:35:31;1.17;;;0.55;;
43311;SDS011;30041;48.300;16.352;2023-06-04T10:38:20;2.58;;;0.80;;
43311;SDS011;30041;48.300;16.352;2023-06-04T10:40:45;1.05;;;0.50;;
43311;SDS011;30041;48.300;16.352;2023-06-04T10:43:12;2.15;;;0.60;;
43311;SDS011;30041;48.300;16.352;2023-06-04T10:45:41;0.80;;;0.50;;
43311;SDS011;30041;48.300;16.352;2023-06-04T10:48:08;1.00;;;0.50;;
43311;SDS011;30041;48.300;16.352;2023-06-04T10:50:47;1.85;;;0.73;;
43311;SDS011;30041;48.300;16.352;2023-06-04T10:53:17;1.60;;;0.60;;
43311;SDS011;30041;48.300;16.352;2023-06-04T10:55:46;1.02;;;0.68;;
43311;SDS011;30041;48.300;16.352;2023-06-04T10:58:13;2.42;;;0.55;;
43311;SDS011;30041;48.300;16.352;2023-06-04T11:00:40;1.65;;;0.50;;
43311;SDS011;30041;48.300;16.352;2023-06-04T11:03:07;0.82;;;0.40;;
43311;SDS011;30041;48.300;16.352;2023-06-04T11:05:40;0.45;;;0.28;;
43311;SDS011;30041;48.300;16.352;2023-06-04T11:08:11;1.17;;;0.30;;
43311;SDS011;30041;48.300;16.352;2023-06-04T11:10:38;0.57;;;0.40;;
43311;SDS011;30041;48.300;16.352;2023-06-04T11:13:24;0.93;;;0.40;;
43311;SDS011;30041;48.300;16.352;2023-06-04T11:15:53;5.43;;;1.40;;
43311;SDS011;30041;48.300;16.352;2023-06-04T11:18:20;4.88;;;1.90;;
43311;SDS011;30041;48.300;16.352;2023-06-04T11:20:48;5.45;;;1.70;;
43311;SDS011;30041;48.300;16.352;2023-06-04T11:23:15;3.38;;;1.52;;
43311;SDS011;30041;48.300;16.352;2023-06-04T11:25:42;4.80;;;1.58;;
43311;SDS011;30041;48.300;16.352;2023-06-04T11:28:15;3.67;;;1.38;;
43311;SDS011;30041;48.300;16.352;2023-06-04T11:30:42;3.53;;;1.48;;
43311;SDS011;30041;48.300;16.352;2023-06-04T11:33:08;2.67;;;1.38;;
43311;SDS011;30041;48.300;16.352;2023-06-04T11:35:41;2.85;;;1.40;;
43311;SDS011;30041;48.300;16.352;2023-06-04T11:38:08;3.88;;;1.20;;
43311;SDS011;30041;48.300;16.352;2023-06-04T11:40:34;6.07;;;1.42;;
43311;SDS011;30041;48.300;16.352;2023-06-04T11:43:01;4.38;;;1.30;;
43311;SDS011;30041;48.300;16.352;2023-06-04T11:45:27;4.10;;;1.52;;
43311;SDS011;30041;48.300;16.352;2023-06-04T11:47:59;2.53;;;1.23;;
43311;SDS011;30041;48.300;16.352;2023-06-04T11:50:27;5.60;;;1.48;;
43311;SDS011;30041;48.300;16.352;2023-06-04T11:52:54;2.72;;;1.20;;
43311;SDS011;30041;48.300;16.352;2023-06-04T11:55:20;3.72;;;1.50;;
43311;SDS011;30041;48.300;16.352;2023-06-04T11:57:46;2.97;;;1.02;;
43311;SDS011;30041;48.300;16.352;2023-06-04T12:00:14;2.03;;;1.17;;
43311;SDS011;30041;48.300;16.352;2023-06-04T12:02:54;3.83;;;1.10;;
43311;SDS011;30041;48.300;16.352;2023-06-04T12:05:22;4.68;;;1.50;;
43311;SDS011;30041;48.300;16.352;2023-06-04T12:08:03;3.55;;;1.50;;
43311;SDS011;30041;48.300;16.352;2023-06-04T12:10:36;2.95;;;1.45;;
43311;SDS011;30041;48.300;16.352;2023-06-04T12:13:05;3.17;;;1.23;;
43311;SDS011;30041;48.300;16.352;2023-06-04T12:15:31;3.42;;;1.50;;
43311;SDS011;30041;48.300;16.352;2023-06-04T12:17:58;2.75;;;1.38;;
43311;SDS011;30041;48.300;16.352;2023-06-04T12:20:40;3.65;;;1.50;;
43311;SDS011;30041;48.300;16.352;2023-06-04T12:23:06;5.18;;;1.40;;
43311;SDS011;30041;48.300;16.352;2023-06-04T12:25:33;2.97;;;1.30;;
43311;SDS011;30041;48.300;16.352;2023-06-04T12:28:00;6.85;;;1.67;;
43311;SDS011;30041;48.300;16.352;2023-06-04T12:30:44;3.20;;;1.40;;
43311;SDS011;30041;48.300;16.352;2023-06-04T12:33:12;5.68;;;1.30;;
43311;SDS011;30041;48.300;16.352;2023-06-04T12:35:38;6.53;;;1.83;;
43311;SDS011;30041;48.300;16.352;2023-06-04T12:38:07;4.53;;;1.48;;
43311;SDS011;30041;48.300;16.352;2023-06-04T12:40:33;5.55;;;1.40;;
43311;SDS011;30041;48.300;16.352;2023-06-04T12:43:01;4.80;;;1.70;;
43311;SDS011;30041;48.300;16.352;2023-06-04T12:45:28;5.15;;;1.40;;
43311;SDS011;30041;48.300;16.352;2023-06-04T12:47:57;8.20;;;1.67;;
43311;SDS011;30041;48.300;16.352;2023-06-04T12:50:23;4.13;;;1.60;;
43311;SDS011;30041;48.300;16.352;2023-06-04T12:52:49;4.82;;;1.70;;
43311;SDS011;30041;48.300;16.352;2023-06-04T12:55:15;3.90;;;1.75;;
43311;SDS011;30041;48.300;16.352;2023-06-04T12:57:41;6.10;;;1.90;;
43311;SDS011;30041;48.300;16.352;2023-06-04T13:00:07;3.35;;;1.80;;
43311;SDS011;30041;48.300;16.352;2023-06-04T13:02:33;5.03;;;2.00;;
43311;SDS011;30041;48.300;16.352;2023-06-04T13:04:59;3.83;;;1.70;;
43311;SDS011;30041;48.300;16.352;2023-06-04T13:07:25;8.55;;;1.90;;
43311;SDS011;30041;48.300;16.352;2023-06-04T13:09:54;5.57;;;1.95;;
43311;SDS011;30041;48.300;16.352;2023-06-04T13:12:20;4.68;;;1.70;;
43311;SDS011;30041;48.300;16.352;2023-06-04T13:14:47;8.57;;;2.33;;
43311;SDS011;30041;48.300;16.352;2023-06-04T13:17:13;13.70;;;2.72;;
43311;SDS011;30041;48.300;16.352;2023-06-04T13:19:39;14.38;;;2.38;;
43311;SDS011;30041;48.300;16.352;2023-06-04T13:22:08;8.10;;;2.00;;
43311;SDS011;30041;48.300;16.352;2023-06-04T13:24:34;7.45;;;2.20;;
43311;SDS011;30041;48.300;16.352;2023-06-04T13:27:03;4.75;;;2.20;;
43311;SDS011;30041;48.300;16.352;2023-06-04T13:29:29;5.95;;;2.03;;
43311;SDS011;30041;48.300;16.352;2023-06-04T13:31:55;5.95;;;1.88;;
43311;SDS011;30041;48.300;16.352;2023-06-04T13:34:21;9.35;;;1.88;;
43311;SDS011;30041;48.300;16.352;2023-06-04T13:36:47;5.30;;;1.85;;
43311;SDS011;30041;48.300;16.352;2023-06-04T13:39:13;5.57;;;1.95;;
43311;SDS011;30041;48.300;16.352;2023-06-04T13:41:39;5.28;;;1.85;;
43311;SDS011;30041;48.300;16.352;2023-06-04T13:44:05;5.40;;;1.90;;
43311;SDS011;30041;48.300;16.352;2023-06-04T13:46:31;5.45;;;1.80;;
43311;SDS011;30041;48.300;16.352;2023-06-04T13:48:59;6.85;;;1.67;;
43311;SDS011;30041;48.300;16.352;2023-06-04T13:51:25;6.72;;;2.20;;
43311;SDS011;30041;48.300;16.352;2023-06-04T13:53:51;4.00;;;1.92;;
43311;SDS011;30041;48.300;16.352;2023-06-04T13:56:17;4.28;;;1.98;;
43311;SDS011;30041;48.300;16.352;2023-06-04T13:58:43;5.63;;;2.00;;
43311;SDS011;30041;48.300;16.352;2023-06-04T14:01:09;7.10;;;2.25;;
43311;SDS011;30041;48.300;16.352;2023-06-04T14:03:35;3.35;;;2.10;;
43311;SDS011;30041;48.300;16.352;2023-06-04T14:06:01;6.97;;;2.13;;
43311;SDS011;30041;48.300;16.352;2023-06-04T14:08:27;6.88;;;2.25;;
43311;SDS011;30041;48.300;16.352;2023-06-04T14:10:53;6.45;;;2.22;;
43311;SDS011;30041;48.300;16.352;2023-06-04T14:13:19;5.93;;;2.65;;
43311;SDS011;30041;48.300;16.352;2023-06-04T14:15:45;8.00;;;2.55;;
43311;SDS011;30041;48.300;16.352;2023-06-04T14:18:11;5.15;;;1.80;;
43311;SDS011;30041;48.300;16.352;2023-06-04T14:20:37;3.88;;;1.55;;
43311;SDS011;30041;48.300;16.352;2023-06-04T14:23:03;3.72;;;2.10;;
43311;SDS011;30041;48.300;16.352;2023-06-04T14:25:29;4.47;;;2.28;;
43311;SDS011;30041;48.300;16.352;2023-06-04T14:27:54;3.40;;;1.88;;
43311;SDS011;30041;48.300;16.352;2023-06-04T14:30:20;4.60;;;2.05;;
43311;SDS011;30041;48.300;16.352;2023-06-04T14:32:46;3.58;;;1.88;;
43311;SDS011;30041;48.300;16.352;2023-06-04T14:35:12;4.35;;;2.00;;
43311;SDS011;30041;48.300;16.352;2023-06-04T14:37:38;7.45;;;2.35;;
43311;SDS011;30041;48.300;16.352;2023-06-04T14:40:05;5.20;;;2.47;;
43311;SDS011;30041;48.300;16.352;2023-06-04T14:42:31;3.65;;;2.10;;
43311;SDS011;30041;48.300;16.352;2023-06-04T14:44:57;3.55;;;1.98;;
43311;SDS011;30041;48.300;16.352;2023-06-04T14:47:23;4.47;;;2.33;;
43311;SDS011;30041;48.300;16.352;2023-06-04T14:49:49;9.75;;;2.20;;